Tiempo atmosférico en la estación meteorológica de Capdepera, Illes Balears (57 m.)



Fecha
DESCASC
Temp. máxima en grados centígrados (hora)
DESCASC
Temp. mínima en grados centígrados (hora)
DESCASC
Temp. media en grados centígrados
DESCASC
Racha de viento máxima en m/sg (hora)
DESCASC
Velocidad máxima media en intervalos de 10 minutos(hora)
DESCASC
Precipitaciones diarias en mm
DESCASC
Precipitaciones de 00:00 a 06:00 en mm
DESCASC
Precipitaciones de 06:00 a 12:00 en mm
DESCASC
Precipitaciones de 12:00 a 18:00 en mm
DESCASC
Precipitaciones de 18:00 a 24:00 en mm
DESCASC
29-03-2020 19 (12:50) 11.7 (07:10) 15.3 7.78 (18:30) 4.72 (19:50) 0 0 0 0 0
28-03-2020 16.3 (13:10) 10.8 (07:40) 13.5 12.22 (06:30) 9.17 (06:40) 1.3 0.1 1.1 0.1 0
27-03-2020 15.2 (14:00) 10.3 (06:50) 12.8 13.61 (18:10) 12.22 (18:20) 1.4 0 0 0 1.4
26-03-2020 14.4 (09:20) 7 (00:00) 10.7 14.44 (20:50) 11.39 (21:10) 39 0 5.6 29.2 4.2
25-03-2020 14 (12:00) 9.6 (00:00) 11.8 16.39 (00:50) 12.5 (00:50) 0 0 0 0 0
24-03-2020 14.9 (00:20) 10.3 (00:00) 12.6 16.11 (23:40) 11.67 (10:00) 0 0 0 0 0
23-03-2020 18.1 (09:40) 14.2 (00:00) 16.2 10.56 (23:59) 8.89 (23:59) 0 0 0 0 0
22-03-2020 16.3 (13:20) 11.5 (08:40) 13.9 18.33 (08:30) 11.39 (08:30) 6.6 0.2 6.4 0 0
21-03-2020 17.4 (14:40) 13.8 (00:00) 15.6 9.72 (00:30) 8.06 (03:40) 0 0 0 0 0
20-03-2020 17 (12:20) 13.6 (00:00) 15.3 10 (08:30) 8.61 (08:30) 0 0 0 0 0
19-03-2020 17.2 (12:00) 13.2 (00:00) 15.2 7.5 (20:10) 6.39 (20:10) 0 0 0 0 0
18-03-2020 17.4 (12:40) 14.2 (00:00) 15.8 10.28 (01:10) 8.33 (01:40) 0 0 0 0 0
17-03-2020 16.1 (12:40) 14.6 (00:00) 15.4 11.94 (06:20) 10 (06:20) 0.1 0.1 0 0 0
16-03-2020 16 (13:00) 14.3 (00:00) 15.2 16.67 (10:00) 13.61 (10:00) 0.2 0 0.2 0 0
15-03-2020 19.7 (11:10) 12.1 (00:00) 15.9 8.61 (22:10) 7.5 (23:10) 0 0 0 0 0
14-03-2020 19.9 (13:00) 12.9 (00:00) 16.4 10.28 (06:50) 8.61 (06:50) 0.2 0.2 0 0 0
13-03-2020 19.5 (12:40) 13.9 (19:50) 16.7 10.56 (10:40) 8.89 (10:40) 0 0 0 0 0
12-03-2020 19.9 (13:30) 13.6 (00:00) 16.8 8.89 (07:00) 6.94 (11:40) 0 0 0 0 0
11-03-2020 20 (10:40) 13.2 (00:00) 16.6 11.11 (14:40) 6.39 (12:20) 0 0 0 0 0
10-03-2020 17.7 (15:10) 12.8 (00:00) 15.3 20 (02:50) 16.39 (02:00) 0 0 0 0 0
09-03-2020 18.1 (10:40) 12 (00:00) 15.1 15.56 (23:59) 13.06 (23:59) 0 0 0 0 0
08-03-2020 20.2 (13:50) 11.4 (00:00) 15.8 6.11 (11:20) 5 (11:30) 0 0 0 0 0
07-03-2020 16.2 (14:10) 10.9 (00:00) 13.6 17.22 (01:00) 12.78 (02:50) 0.1 0 0.1 0 0
06-03-2020 19.5 (11:20) 8.7 (00:00) 14.1 19.72 (17:50) 10 (21:00) 8.2 0 0 0 8.2
05-03-2020 22.3 (13:10) 14.1 (00:00) 18.2 13.06 (13:10) 5.56 (23:50) 0 0 0 0 0
04-03-2020 17.5 (17:30) 12.7 (00:00) 15.1 16.39 (00:50) 13.06 (01:20) 0 0 0 0 0
03-03-2020 19.1 (21:10) 11.9 (00:00) 15.5 22.78 (23:10) 14.17 (23:20) 0 0 0 0 0
02-03-2020 21 (12:20) 12.9 (00:00) 16.9 18.89 (22:30) 8.89 (23:59) 4.2 0 1 3.2 0
01-03-2020 23.4 (14:10) 15.3 (00:00) 19.3 11.39 (02:00) 5 (23:00) 0 0 0 0 0
29-02-2020 23.2 (14:50) 13.5 (00:00) 18.4 13.06 (14:30) 7.5 (00:50) 0 0 0 0 0

Gráficas

Temp. máximas Temp. mínimas Temp. medias Precipitaciones Rachas de viento máximas Velocidades máximas media en intervalos de 10 minutos

Datos horarios

Fecha y hora oficial Temperatura (ºC) Velocidad del viento (km/h) Dirección del viento Racha (km/h) Dirección de racha Precipitación (mm) Presión (hPa) Tendencia (hPa) Humedad (%)
2020-03-29 23:00:00 13.8 9 Oeste 25 Oeste 0 -- -- 64
2020-03-29 22:00:00 14.1 13 Oeste 24 Oeste 0 -- -- 65
2020-03-29 21:00:00 15.2 6 Oeste 17 Sudoeste 0 -- -- 62
2020-03-29 20:00:00 15.4 12 Sudoeste 26 Sudoeste 0 -- -- 79
2020-03-29 19:00:00 16 13 Sudoeste 28 Sur 0 -- -- 62
2020-03-29 18:00:00 17.7 12 Sudoeste 26 Sudoeste 0 -- -- 50
2020-03-29 17:00:00 18.9 10 Sur 18 Sur 0 -- -- 58
2020-03-29 16:00:00 18.2 9 Este 13 Nordeste 0 -- -- 52
2020-03-29 15:00:00 18.1 12 Norte 16 Norte 0 -- -- 53
2020-03-29 14:00:00 18.9 5 Nordeste 13 Nordeste 0 -- -- 57
2020-03-29 13:00:00 18.5 0 Calma 8 Sur 0 -- -- 63
2020-03-29 12:00:00 17.1 6 Sur 9 Sur 0 -- -- 65
2020-03-29 11:00:00 16.7 4 Sur 8 Sur 0 -- -- 63
2020-03-29 10:00:00 17.4 4 Sur 9 Oeste 0 -- -- 55
2020-03-29 09:00:00 13.7 5 Oeste 17 Oeste 0 -- -- 63
2020-03-29 08:00:00 12.2 5 Noroeste 9 Noroeste 0 -- -- 70
2020-03-29 07:00:00 11.9 0 Calma 5 Oeste 0 -- -- 73
2020-03-29 06:00:00 12.4 0 Calma 7 Nordeste 0 -- -- 78
2020-03-29 05:00:00 12.6 0 Calma 5 Sur 0 -- -- 81
2020-03-29 03:00:00 12.7 6 Noroeste 12 Noroeste 0 -- -- 83
2020-03-29 01:00:00 13 9 Noroeste 20 Norte 0 -- -- 85
2020-03-29 00:00:00 13.4 15 Norte 23 Norte 0 -- -- 84
2020-03-28 23:00:00 13.4 17 Norte 23 Norte 0 -- -- 82
2020-03-28 22:00:00 13.2 19 Norte 23 Noroeste 0 -- -- 83
2020-03-28 21:00:00 13.3 19 Noroeste 26 Norte 0 -- -- 81
2020-03-28 20:00:00 13.6 21 Norte 27 Noroeste 0 -- -- 82
2020-03-28 19:00:00 13.3 22 Norte 27 Norte 0 -- -- 78
2020-03-28 18:00:00 13.4 22 Norte 27 Norte 0.1 -- -- 78
2020-03-28 17:00:00 13.6 18 Norte 25 Norte 0 -- -- 83
2020-03-28 16:00:00 13.3 20 Norte 27 Norte 0 -- -- 83
2020-03-28 15:00:00 13.8 22 Norte 30 Norte 0 -- -- 73
2020-03-28 14:00:00 15.2 22 Norte 28 Noroeste 0 -- -- 69
2020-03-28 13:00:00 15.5 20 Norte 31 Norte 0 -- -- 67
2020-03-28 12:00:00 15.2 21 Noroeste 30 Norte 0 -- -- 75
2020-03-28 11:00:00 14.4 24 Noroeste 30 Noroeste 0 -- -- 76
2020-03-28 10:00:00 12.8 23 Noroeste 32 Noroeste 0 -- -- 84
2020-03-28 09:00:00 11.9 23 Noroeste 34 Noroeste 0 -- -- 87
2020-03-28 08:00:00 11 23 Noroeste 34 Norte 0.8 -- -- 90
2020-03-28 07:00:00 11.4 32 Norte 44 Norte 0.3 -- -- 91
2020-03-28 06:00:00 12.2 32 Norte 39 Norte 0.1 -- -- 78
2020-03-28 05:00:00 12.7 25 Norte 30 Norte 0 -- -- 68
2020-03-28 04:00:00 12.6 22 Norte 28 Norte 0 -- -- 70
2020-03-28 03:00:00 12.2 20 Norte 29 Norte 0 -- -- 73
2020-03-28 02:00:00 11.9 22 Norte 39 Norte 0 -- -- 81
2020-03-28 01:00:00 11.9 24 Norte 36 Noroeste 0 -- -- 78
2020-03-28 00:00:00 11.6 28 Norte 37 Norte 0 -- -- 76
2020-03-27 23:00:00 11.5 32 Norte 39 Norte 0 -- -- 77
2020-03-27 22:00:00 11.3 32 Norte 43 Norte 0 -- -- 77
2020-03-27 21:00:00 11.3 38 Norte 48 Norte 0 -- -- 81
2020-03-27 20:00:00 10.8 23 Norte 44 Norte 0.5 -- -- 88
2020-03-27 19:00:00 10.7 30 Norte 49 Norte 0.9 -- -- 87
2020-03-27 18:00:00 11.4 37 Norte 45 Norte 0 -- -- 80
2020-03-27 17:00:00 13.1 23 Norte 41 Norte 0 -- -- 53
2020-03-27 16:00:00 14.3 24 Norte 38 Noroeste 0 -- -- 53
2020-03-27 15:00:00 14.1 26 Norte 37 Norte 0 -- -- 55
2020-03-27 14:00:00 15.1 26 Norte 40 Norte 0 -- -- 47
2020-03-27 13:00:00 14.5 28 Norte 39 Norte 0 -- -- 53
2020-03-27 12:00:00 14.6 26 Norte 36 Norte 0 -- -- 47
2020-03-27 11:00:00 14.1 25 Norte 32 Noroeste 0 -- -- 58
2020-03-27 10:00:00 12.6 28 Norte 39 Norte 0 -- -- 57
2020-03-27 09:00:00 12.4 26 Norte 33 Norte 0 -- -- 53
2020-03-27 08:00:00 12.1 21 Norte 29 Norte 0 -- -- 48
2020-03-27 07:00:00 10.7 18 Norte 29 Norte 0 -- -- 56
2020-03-27 06:00:00 10.5 22 Norte 35 Norte 0 -- -- 61
2020-03-27 05:00:00 10.9 21 Norte 31 Nordeste 0 -- -- 58
2020-03-27 04:00:00 10.6 24 Nordeste 37 Nordeste 0 -- -- 58
2020-03-27 03:00:00 10.6 28 Nordeste 38 Nordeste 0 -- -- 55
2020-03-27 02:00:00 10.7 29 Nordeste 39 Nordeste 0 -- -- 59
2020-03-27 01:00:00 10.7 32 Nordeste 43 Nordeste 0 -- -- 56
2020-03-27 00:00:00 10.5 33 Nordeste 47 Nordeste 0 -- -- 66
2020-03-26 23:00:00 10.7 39 Nordeste 47 Nordeste 0 -- -- 71
2020-03-26 22:00:00 10.3 32 Nordeste 51 Nordeste 0.1 -- -- 79
2020-03-26 21:00:00 8.6 37 Nordeste 52 Nordeste 2.4 -- -- 95
2020-03-26 20:00:00 9 35 Este 49 Nordeste 1.3 -- -- 89
2020-03-26 19:00:00 9.4 22 Nordeste 35 Este 0.4 -- -- 84
2020-03-26 18:00:00 9.5 17 Nordeste 27 Este 0.3 -- -- 86
2020-03-26 17:00:00 9.4 18 Este 29 Este 0.6 -- -- 78
2020-03-26 16:00:00 8.2 3 Noroeste 34 Este 2.4 -- -- 88
2020-03-26 15:00:00 8.6 0 Calma 11 Este 2.6 -- -- 89
2020-03-26 14:00:00 8.2 8 Este 33 Norte 4.2 -- -- 91
2020-03-26 13:00:00 7.6 23 Norte 34 Norte 19.1 -- -- 94
2020-03-26 12:00:00 7.4 30 Sur 48 Sur 5.6 -- -- 92
2020-03-26 11:00:00 12 10 Este 20 Este 0 -- -- 68
2020-03-26 10:00:00 12.3 14 Sur 18 Sur 0 -- -- 63
2020-03-26 09:00:00 13.6 9 Sur 15 Sur 0 -- -- 59
2020-03-26 08:00:00 11.2 3 Sur 14 Oeste 0 -- -- 65
2020-03-26 07:00:00 8.3 4 Oeste 15 Oeste 0 -- -- 70
2020-03-26 06:00:00 8.8 4 Sudoeste 24 Sudoeste 0 -- -- 70
2020-03-26 05:00:00 9.5 4 Sudoeste 19 Sudoeste 0 -- -- 63
2020-03-26 04:00:00 9.1 2 Sur 9 Sur 0 -- -- 61
2020-03-26 03:00:00 9.1 0 Calma 8 Sudeste 0 -- -- 64
2020-03-26 02:00:00 9.2 0 Calma 10 Sur 0 -- -- 62
2020-03-26 01:00:00 9.3 2 Sudoeste 8 Sur 0 -- -- 59
2020-03-26 00:00:00 9.6 3 Sudoeste 14 Este 0 -- -- 58
2020-03-25 23:00:00 10.1 5 Sudeste 17 Nordeste 0 -- -- 56
2020-03-25 22:00:00 10.2 8 Nordeste 20 Este 0 -- -- 55
2020-03-25 21:00:00 10.3 8 Nordeste 22 Este 0 -- -- 53
2020-03-25 20:00:00 10.6 17 Nordeste 28 Nordeste 0 -- -- 54
2020-03-25 19:00:00 10.9 19 Nordeste 33 Nordeste 0 -- -- 54
2020-03-25 18:00:00 11.4 28 Nordeste 39 Nordeste 0 -- -- 55
2020-03-25 17:00:00 11.6 27 Norte 43 Norte 0 -- -- 49
2020-03-25 16:00:00 12 26 Nordeste 36 Nordeste 0 -- -- 37
2020-03-25 15:00:00 12.4 21 Norte 44 Norte 0 -- -- 48
2020-03-25 14:00:00 12.2 37 Nordeste 56 Norte 0 -- -- 49
2020-03-25 13:00:00 12.8 23 Norte 34 Norte 0 -- -- 45
2020-03-25 12:00:00 -- -- -- -- -- -- -- -- --
2020-03-25 11:00:00 -- -- -- -- -- -- -- -- --
2020-03-25 10:00:00 -- -- -- -- -- -- -- -- --
2020-03-25 09:00:00 -- -- -- -- -- -- -- -- --
2020-03-25 08:00:00 -- -- -- -- -- -- -- -- --
2020-03-25 07:00:00 -- -- -- -- -- -- -- -- --
2020-03-25 06:00:00 -- -- -- -- -- -- -- -- --
2020-03-25 05:00:00 -- -- -- -- -- -- -- -- --
2020-03-25 04:00:00 -- -- -- -- -- -- -- -- --
2020-03-25 03:00:00 -- -- -- -- -- -- -- -- --
2020-03-25 02:00:00 -- -- -- -- -- -- -- -- --
2020-03-25 01:00:00 -- -- -- -- -- -- -- -- --
2020-03-25 00:00:00 -- -- -- -- -- -- -- -- --
2020-03-24 23:00:00 -- -- -- -- -- -- -- -- --
2020-03-24 22:00:00 -- -- -- -- -- -- -- -- --
2020-03-24 21:00:00 -- -- -- -- -- -- -- -- --
2020-03-24 20:00:00 -- -- -- -- -- -- -- -- --
2020-03-24 19:00:00 -- -- -- -- -- -- -- -- --
2020-03-24 18:00:00 -- -- -- -- -- -- -- -- --
2020-03-24 17:00:00 -- -- -- -- -- -- -- -- --
2020-03-24 16:00:00 -- -- -- -- -- -- -- -- --
2020-03-24 15:00:00 -- -- -- -- -- -- -- -- --
2020-03-24 14:00:00 -- -- -- -- -- -- -- -- --
2020-03-24 13:00:00 -- -- -- -- -- -- -- -- --
2020-03-24 12:00:00 -- -- -- -- -- -- -- -- --
2020-03-24 11:00:00 -- -- -- -- -- -- -- -- --
2020-03-24 10:00:00 -- -- -- -- -- -- -- -- --
2020-03-24 09:00:00 -- -- -- -- -- -- -- -- --
2020-03-24 08:00:00 -- -- -- -- -- -- -- -- --
2020-03-24 07:00:00 -- -- -- -- -- -- -- -- --
2020-03-24 06:00:00 -- -- -- -- -- -- -- -- --
2020-03-24 05:00:00 -- -- -- -- -- -- -- -- --
2020-03-24 04:00:00 -- -- -- -- -- -- -- -- --
2020-03-24 03:00:00 -- -- -- -- -- -- -- -- --
2020-03-24 02:00:00 -- -- -- -- -- -- -- -- --
2020-03-24 01:00:00 -- -- -- -- -- -- -- -- --
2020-03-24 00:00:00 -- -- -- -- -- -- -- -- --
2020-03-23 23:00:00 -- -- -- -- -- -- -- -- --
2020-03-23 22:00:00 -- -- -- -- -- -- -- -- --
2020-03-23 21:00:00 -- -- -- -- -- -- -- -- --
2020-03-23 20:00:00 -- -- -- -- -- -- -- -- --
2020-03-23 19:00:00 -- -- -- -- -- -- -- -- --
2020-03-23 18:00:00 -- -- -- -- -- -- -- -- --
2020-03-23 17:00:00 -- -- -- -- -- -- -- -- --
2020-03-23 16:00:00 -- -- -- -- -- -- -- -- --
2020-03-23 15:00:00 -- -- -- -- -- -- -- -- --
2020-03-23 14:00:00 -- -- -- -- -- -- -- -- --
2020-03-23 13:00:00 -- -- -- -- -- -- -- -- --
2020-03-23 12:00:00 -- -- -- -- -- -- -- -- --
2020-03-23 11:00:00 -- -- -- -- -- -- -- -- --
2020-03-23 10:00:00 17.7 13 Sudeste 18 Sudeste 0 -- -- 73
2020-03-23 09:00:00 17.3 17 Sudeste 21 Sudeste 0 -- -- 73
2020-03-23 08:00:00 15.8 18 Sudeste 25 Sur 0 -- -- 80
2020-03-23 07:00:00 14.3 22 Sudeste 27 Sudeste 0 -- -- 86
2020-03-23 06:00:00 14.4 24 Sudeste 30 Sudeste 0 -- -- 87
2020-03-23 05:00:00 14.5 26 Sudeste 29 Sudeste 0 -- -- 87
2020-03-23 04:00:00 14.6 24 Sudeste 29 Sudeste 0 -- -- 88
2020-03-23 03:00:00 14.5 23 Sur 27 Sur 0 -- -- 88
2020-03-23 02:00:00 14.5 24 Sur 28 Sur 0 -- -- 89
2020-03-23 01:00:00 14.5 19 Sur 23 Sur 0 -- -- 88
2020-03-23 00:00:00 14.4 19 Sur 22 Sur 0 -- -- 90
2020-03-22 23:00:00 14.6 19 Sur 23 Sur 0 -- -- 91
2020-03-22 22:00:00 14.6 16 Sur 27 Sudeste 0 -- -- 91
2020-03-22 21:00:00 14.8 24 Sur 28 Sudeste 0 -- -- 90
2020-03-22 20:00:00 14.6 18 Sur 25 Sur 0 -- -- 88
2020-03-22 19:00:00 14.5 22 Sur 26 Sur 0 -- -- 87
2020-03-22 18:00:00 15.1 24 Sur 38 Sudeste 0 -- -- 79
2020-03-22 17:00:00 15.3 30 Sudeste 37 Sudeste 0 -- -- 84
2020-03-22 16:00:00 15.7 3 Oeste 19 Sur 0 -- -- 85
2020-03-22 15:00:00 15.7 16 Sur 31 Sur 0 -- -- 88
2020-03-22 14:00:00 16 22 Sur 32 Sudoeste 0 -- -- 87
2020-03-22 13:00:00 15.2 21 Sur 31 Sur 0 -- -- 88
2020-03-22 12:00:00 15.2 20 Sur 26 Sur 0 -- -- 93
2020-03-22 11:00:00 15.3 17 Sur 24 Sudeste 0.5 -- -- 97
2020-03-22 10:00:00 14.9 22 Sudeste 35 Sudeste 0 -- -- 98
2020-03-22 09:00:00 14.2 31 Sudeste 66 Este 5.8 -- -- 99
2020-03-22 08:00:00 14.7 27 Este 36 Este 0.1 -- -- 93
2020-03-22 07:00:00 14.3 29 Este 37 Este 0 -- -- 91
2020-03-22 06:00:00 14.8 23 Este 27 Este 0 -- -- 90
2020-03-22 05:00:00 14.9 17 Sudeste 20 Sudeste 0 -- -- 92
2020-03-22 04:00:00 14.9 8 Sudeste 20 Sur 0 -- -- 93
2020-03-22 03:00:00 14.5 7 Sudeste 15 Nordeste 0.1 -- -- 91
2020-03-22 02:00:00 14.4 16 Nordeste 20 Norte 0.1 -- -- 96
2020-03-22 01:00:00 14.6 17 Norte 22 Norte 0 -- -- 92
2020-03-22 00:00:00 14.8 12 Norte 16 Norte 0 -- -- 90
2020-03-21 23:00:00 14.8 13 Nordeste 19 Nordeste 0 -- -- 89
2020-03-21 22:00:00 14.8 17 Nordeste 21 Nordeste 0 -- -- 89
2020-03-21 21:00:00 14.9 11 Nordeste 17 Este 0 -- -- 86
2020-03-21 20:00:00 15.3 11 Este 20 Este 0 -- -- 85
2020-03-21 19:00:00 15.1 17 Este 22 Este 0 -- -- 82
2020-03-21 18:00:00 15.4 17 Este 21 Este 0 -- -- 82
2020-03-21 17:00:00 16 14 Este 19 Este 0 -- -- 81
2020-03-21 16:00:00 16.6 11 Este 15 Este 0 -- -- 76
2020-03-21 15:00:00 17 9 Sudeste 18 Este 0 -- -- 71
2020-03-21 14:00:00 17 14 Este 24 Este 0 -- -- 73
2020-03-21 13:00:00 16.7 19 Este 23 Este 0 -- -- 74
2020-03-21 12:00:00 17.1 17 Este 21 Este 0 -- -- 75
2020-03-21 11:00:00 16.3 18 Nordeste 23 Nordeste 0 -- -- 79
2020-03-21 10:00:00 16.5 17 Nordeste 23 Nordeste 0 -- -- 80
2020-03-21 09:00:00 15 20 Nordeste 27 Nordeste 0 -- -- 88
2020-03-21 08:00:00 14.7 23 Nordeste 28 Nordeste 0 -- -- 88
2020-03-21 07:00:00 14.6 19 Nordeste 28 Nordeste 0 -- -- 90
2020-03-21 06:00:00 14.5 23 Nordeste 31 Nordeste 0 -- -- 88
2020-03-21 05:00:00 14.4 26 Nordeste 32 Nordeste 0 -- -- 86
2020-03-21 04:00:00 14.4 27 Nordeste 34 Nordeste 0 -- -- 84
2020-03-21 03:00:00 14.3 26 Nordeste 32 Nordeste 0 -- -- 81
2020-03-21 02:00:00 13.9 24 Nordeste 32 Nordeste 0 -- -- 84
2020-03-21 01:00:00 14 26 Nordeste 35 Nordeste 0 -- -- 86
2020-03-21 00:00:00 13.9 24 Nordeste 33 Nordeste 0 -- -- 86
2020-03-20 23:00:00 14.1 26 Nordeste 30 Nordeste 0 -- -- 80
2020-03-20 22:00:00 14.2 23 Nordeste 31 Nordeste 0 -- -- 81
2020-03-20 21:00:00 14.3 21 Nordeste 28 Nordeste 0 -- -- 81
2020-03-20 20:00:00 14.6 24 Nordeste 30 Nordeste 0 -- -- 79
2020-03-20 19:00:00 14.8 24 Nordeste 30 Nordeste 0 -- -- 76
2020-03-20 18:00:00 15 21 Nordeste 27 Este 0 -- -- 76
2020-03-20 17:00:00 15.5 23 Este 31 Este 0 -- -- 74
2020-03-20 16:00:00 15.7 22 Este 31 Este 0 -- -- 74
2020-03-20 15:00:00 15.8 23 Este 29 Este 0 -- -- 73
2020-03-20 14:00:00 16.2 26 Este 33 Este 0 -- -- 68
2020-03-20 13:00:00 16.6 26 Este 35 Este 0 -- -- 67
2020-03-20 12:00:00 16.8 28 Este 35 Este 0 -- -- 60
2020-03-20 11:00:00 16.3 27 Este 35 Nordeste 0 -- -- 65
2020-03-20 10:00:00 16.4 27 Este 35 Este 0 -- -- 62
2020-03-20 09:00:00 15.7 27 Este 36 Este 0 -- -- 65
2020-03-20 08:00:00 15 28 Este 35 Este 0 -- -- 72
2020-03-20 07:00:00 14.2 23 Este 32 Este 0 -- -- 80
2020-03-20 06:00:00 14.1 27 Este 32 Este 0 -- -- 77
2020-03-20 05:00:00 14.1 25 Este 31 Este 0 -- -- 77
2020-03-20 04:00:00 14.1 24 Este 29 Este 0 -- -- 75
2020-03-20 03:00:00 14 21 Este 28 Este 0 -- -- 75
2020-03-20 02:00:00 13.9 20 Este 24 Este 0 -- -- 76
2020-03-20 01:00:00 13.8 17 Nordeste 24 Nordeste 0 -- -- 82
2020-03-20 00:00:00 13.8 18 Nordeste 24 Nordeste 0 -- -- 82
2020-03-19 23:00:00 13.9 19 Este 24 Nordeste 0 -- -- 81
2020-03-19 22:00:00 13.8 19 Nordeste 24 Este 0 -- -- 80
2020-03-19 21:00:00 14.3 18 Nordeste 27 Este 0 -- -- 81
2020-03-19 20:00:00 14.3 22 Este 26 Este 0 -- -- 82
2020-03-19 19:00:00 14.3 16 Este 20 Este 0 -- -- 80
2020-03-19 18:00:00 14.6 14 Este 19 Este 0 -- -- 79
2020-03-19 17:00:00 15 10 Este 15 Este 0 -- -- 73
2020-03-19 16:00:00 15.6 12 Este 17 Este 0 -- -- 70
2020-03-19 15:00:00 15.7 13 Este 17 Este 0 -- -- 69
2020-03-19 14:00:00 16.8 12 Este 19 Nordeste 0 -- -- 62
2020-03-19 13:00:00 16.7 13 Este 18 Este 0 -- -- 63
2020-03-19 12:00:00 16.8 12 Este 16 Este 0 -- -- 66
2020-03-19 11:00:00 16.2 13 Este 20 Este 0 -- -- 68
2020-03-19 10:00:00 14.9 16 Este 21 Este 0 -- -- 75
2020-03-19 09:00:00 14.9 15 Este 22 Este 0 -- -- 77
2020-03-19 08:00:00 13.8 18 Este 23 Nordeste 0 -- -- 84
2020-03-19 07:00:00 13.3 18 Nordeste 22 Nordeste 0 -- -- 89
2020-03-19 06:00:00 13.4 15 Nordeste 20 Nordeste 0 -- -- 91
2020-03-19 05:00:00 13.5 14 Nordeste 19 Nordeste 0 -- -- 90
2020-03-19 04:00:00 13.7 14 Nordeste 16 Nordeste 0 -- -- 89
2020-03-19 03:00:00 13.8 11 Nordeste 14 Nordeste 0 -- -- 90
2020-03-19 02:00:00 14.1 6 Nordeste 10 Nordeste 0 -- -- 88
2020-03-19 01:00:00 14.1 6 Este 10 Este 0 -- -- 87
2020-03-19 00:00:00 14.2 6 Este 13 Sudeste 0 -- -- 87
2020-03-18 23:00:00 14.4 10 Este 18 Este 0 -- -- 87
2020-03-18 22:00:00 14.4 13 Este 20 Este 0 -- -- 87
2020-03-18 21:00:00 14.6 17 Este 22 Este 0 -- -- 86
2020-03-18 20:00:00 14.7 18 Este 21 Este 0 -- -- 84
2020-03-18 19:00:00 15 17 Nordeste 21 Este 0 -- -- 81
2020-03-18 18:00:00 15.3 16 Este 19 Nordeste 0 -- -- 81
2020-03-18 17:00:00 15.5 14 Nordeste 18 Nordeste 0 -- -- 79
2020-03-18 16:00:00 16 14 Este 18 Este 0 -- -- 77
2020-03-18 15:00:00 16.6 12 Nordeste 18 Nordeste 0 -- -- 76
2020-03-18 14:00:00 16.8 13 Este 20 Nordeste 0 -- -- 76
2020-03-18 13:00:00 16.8 15 Nordeste 18 Nordeste 0 -- -- 78
2020-03-18 12:00:00 16.9 15 Nordeste 22 Nordeste 0 -- -- 78
2020-03-18 11:00:00 16.1 20 Nordeste 24 Nordeste 0 -- -- 81
2020-03-18 10:00:00 15.3 20 Nordeste 23 Nordeste 0 -- -- 85
2020-03-18 09:00:00 14.7 19 Nordeste 26 Nordeste 0 -- -- 87
2020-03-18 08:00:00 14.3 22 Nordeste 26 Nordeste 0 -- -- 88
2020-03-18 07:00:00 14.2 22 Nordeste 28 Nordeste 0 -- -- 90
2020-03-18 06:00:00 14.2 24 Nordeste 30 Nordeste 0 -- -- 88
2020-03-18 05:00:00 14.3 26 Nordeste 30 Nordeste 0 -- -- 88
2020-03-18 04:00:00 14.3 23 Nordeste 35 Nordeste 0 -- -- 88
2020-03-18 03:00:00 14.5 28 Nordeste 34 Nordeste 0 -- -- 84
2020-03-18 02:00:00 14.6 29 Nordeste 37 Nordeste 0 -- -- 86
2020-03-18 01:00:00 14.7 27 Nordeste 33 Nordeste 0 -- -- 84
2020-03-18 00:00:00 14.7 23 Nordeste 32 Nordeste 0 -- -- 85
2020-03-17 23:00:00 14.8 26 Nordeste 32 Nordeste 0 -- -- 81
2020-03-17 22:00:00 14.8 26 Nordeste 34 Nordeste 0 -- -- 82
2020-03-17 21:00:00 14.9 28 Nordeste 34 Nordeste 0 -- -- 84
2020-03-17 20:00:00 15.1 27 Este 37 Este 0 -- -- 83
2020-03-17 19:00:00 15 31 Este 37 Este 0 -- -- 83
2020-03-17 18:00:00 15.1 30 Este 39 Este 0 -- -- 85
2020-03-17 17:00:00 15.3 30 Este 37 Este 0 -- -- 84
2020-03-17 16:00:00 15.5 30 Este 39 Este 0 -- -- 83
2020-03-17 15:00:00 15.8 31 Este 36 Este 0 -- -- 80
2020-03-17 14:00:00 16 28 Este 37 Este 0 -- -- 80
2020-03-17 13:00:00 15.9 31 Este 40 Este 0 -- -- 82
2020-03-17 12:00:00 15.9 30 Este 40 Este 0 -- -- 84
2020-03-17 11:00:00 15.6 30 Este 40 Este 0 -- -- 88
2020-03-17 10:00:00 15.5 31 Este 38 Este 0 -- -- 89
2020-03-17 09:00:00 15.4 28 Este 38 Este 0 -- -- 90
2020-03-17 08:00:00 15.4 32 Este 42 Este 0 -- -- 91
2020-03-17 07:00:00 15.3 31 Este 43 Este 0 -- -- 92
2020-03-17 06:00:00 15 31 Nordeste 37 Nordeste 0 -- -- 96
2020-03-17 05:00:00 15.2 28 Este 35 Este 0.1 -- -- 96
2020-03-17 04:00:00 15.3 21 Sudeste 26 Sudeste 0 -- -- 95
2020-03-17 03:00:00 15.4 19 Este 24 Este 0 -- -- 95
2020-03-17 02:00:00 15.4 18 Este 24 Este 0 -- -- 94
2020-03-17 01:00:00 15.5 20 Este 25 Este 0 -- -- 93
2020-03-17 00:00:00 15.5 19 Este 24 Sudeste 0 -- -- 92
2020-03-16 23:00:00 15.5 23 Sudeste 29 Sudeste 0 -- -- 91
2020-03-16 22:00:00 15.6 26 Sudeste 31 Sudeste 0 -- -- 91
2020-03-16 21:00:00 15.6 22 Sudeste 28 Sudeste 0 -- -- 91
2020-03-16 20:00:00 15.6 22 Sudeste 34 Sudeste 0 -- -- 90
2020-03-16 19:00:00 15.7 27 Sudeste 32 Sudeste 0 -- -- 90
2020-03-16 18:00:00 15.8 29 Sudeste 33 Sudeste 0 -- -- 89
2020-03-16 17:00:00 15.9 24 Sudeste 27 Sudeste 0 -- -- 90
2020-03-16 16:00:00 15.8 21 Sudeste 34 Sudeste 0 -- -- 88
2020-03-16 15:00:00 15.8 21 Sudeste 39 Sudeste 0 -- -- 88
2020-03-16 14:00:00 16 35 Sudeste 50 Sudeste 0 -- -- 88
2020-03-16 13:00:00 15.9 39 Sudeste 50 Sudeste 0 -- -- 87
2020-03-16 12:00:00 15.6 35 Sudeste 47 Sudeste 0 -- -- 89
2020-03-16 11:00:00 15.4 41 Sudeste 54 Sudeste 0 -- -- 89
2020-03-16 10:00:00 15.2 49 Sudeste 60 Sudeste 0.2 -- -- 92
2020-03-16 09:00:00 15.3 32 Sudeste 40 Sudeste 0 -- -- 92
2020-03-16 08:00:00 15.5 32 Sudeste 36 Sudeste 0 -- -- 90
2020-03-16 07:00:00 15.2 33 Sudeste 39 Sudeste 0 -- -- 87
2020-03-16 06:00:00 15 30 Sudeste 33 Sudeste 0 -- -- 85
2020-03-16 05:00:00 14.9 26 Sudeste 34 Sudeste 0 -- -- 86
2020-03-16 04:00:00 14.6 28 Sudeste 34 Sudeste 0 -- -- 86
2020-03-16 03:00:00 14.4 26 Sudeste 31 Sudeste 0 -- -- 82
2020-03-16 02:00:00 14.4 21 Sudeste 27 Este 0 -- -- 81
2020-03-16 01:00:00 14.6 24 Sudeste 30 Sudeste 0 -- -- 84
2020-03-16 00:00:00 14.5 24 Sudeste 31 Sudeste 0 -- -- 81
2020-03-15 23:00:00 14.5 25 Sudeste 31 Sudeste 0 -- -- 79
2020-03-15 22:00:00 14.4 25 Sudeste 30 Sudeste 0 -- -- 79
2020-03-15 21:00:00 14.3 22 Sudeste 25 Sudeste 0 -- -- 79
2020-03-15 20:00:00 14.3 19 Sudeste 23 Sudeste 0 -- -- 79
2020-03-15 19:00:00 14.5 18 Sudeste 23 Sudeste 0 -- -- 80
2020-03-15 18:00:00 15.1 17 Sudeste 22 Sudeste 0 -- -- 77
2020-03-15 17:00:00 16.2 15 Sudeste 17 Sudeste 0 -- -- 74
2020-03-15 16:00:00 17.9 14 Sur 18 Sur 0 -- -- 64
2020-03-15 15:00:00 19.1 13 Sur 19 Sur 0 -- -- 59
2020-03-15 14:00:00 19.2 16 Sur 20 Sur 0 -- -- 60
2020-03-15 13:00:00 19.3 15 Sur 22 Sur 0 -- -- 62
2020-03-15 12:00:00 18.8 15 Sur 18 Sur 0 -- -- 65
2020-03-15 11:00:00 19.2 10 Sur 14 Sur 0 -- -- 64
2020-03-15 10:00:00 18.5 9 Sur 12 Sur 0 -- -- 64
2020-03-15 09:00:00 16.4 4 Sudeste 7 Sur 0 -- -- 72
2020-03-15 08:00:00 15.2 0 Calma 4 Nordeste 0 -- -- 75
2020-03-15 07:00:00 12.4 0 Calma 9 Oeste 0 -- -- 81
2020-03-15 06:00:00 12.6 8 Oeste 10 Oeste 0 -- -- 79
2020-03-15 05:00:00 12.7 3 Noroeste 13 Oeste 0 -- -- 79
2020-03-15 04:00:00 12.6 8 Oeste 12 Sudoeste 0 -- -- 86
2020-03-15 03:00:00 12.6 5 Oeste 11 Oeste 0 -- -- 84
2020-03-15 02:00:00 12.9 5 Sudoeste 11 Sudoeste 0 -- -- 82
2020-03-15 01:00:00 12.8 3 Sudoeste 12 Oeste 0 -- -- 80
2020-03-15 00:00:00 13.1 3 Sudoeste 9 Sudoeste 0 -- -- 80
2020-03-14 23:00:00 13.2 3 Sudoeste 9 Sudoeste 0 -- -- 81
2020-03-14 22:00:00 13.4 2 Sudoeste 9 Oeste 0 -- -- 79
2020-03-14 21:00:00 13.3 0 Calma 4 Oeste 0 -- -- 79
2020-03-14 20:00:00 13.7 2 Norte 5 Norte 0 -- -- 78
2020-03-14 19:00:00 14 3 Norte 5 Norte 0 -- -- 78
2020-03-14 18:00:00 14.4 3 Nordeste 17 Norte 0 -- -- 76
2020-03-14 17:00:00 15.4 12 Norte 21 Nordeste 0 -- -- 73
2020-03-14 16:00:00 15.4 15 Norte 19 Norte 0 -- -- 65
2020-03-14 15:00:00 16.2 9 Nordeste 13 Nordeste 0 -- -- 59
2020-03-14 14:00:00 16.9 9 Sudeste 15 Este 0 -- -- 56
2020-03-14 13:00:00 19.8 8 Sur 12 Sur 0 -- -- 47
2020-03-14 12:00:00 17.4 6 Sudeste 13 Este 0 -- -- 52
2020-03-14 11:00:00 16.2 8 Este 25 Nordeste 0 -- -- 58
2020-03-14 10:00:00 14.9 23 Nordeste 32 Nordeste 0 -- -- 58
2020-03-14 09:00:00 15.3 26 Norte 36 Nordeste 0 -- -- 61
2020-03-14 08:00:00 14.1 22 Norte 35 Norte 0 -- -- 67
2020-03-14 07:00:00 14.1 31 Norte 37 Norte 0 -- -- 60
2020-03-14 06:00:00 14.1 27 Norte 33 Norte 0 -- -- 86
2020-03-14 05:00:00 13.9 22 Nordeste 27 Nordeste 0.2 -- -- 89
2020-03-14 04:00:00 14.5 17 Norte 23 Nordeste 0 -- -- 77
2020-03-14 03:00:00 14.6 14 Norte 19 Noroeste 0 -- -- 72
2020-03-14 02:00:00 14.5 17 Norte 22 Norte 0 -- -- 71
2020-03-14 01:00:00 14.5 16 Norte 21 Norte 0 -- -- 68
2020-03-14 00:00:00 14.3 18 Norte 22 Norte 0 -- -- 67
2020-03-13 23:00:00 14.2 18 Norte 26 Noroeste 0 -- -- 67
2020-03-13 22:00:00 14 23 Noroeste 27 Noroeste 0 -- -- 72
2020-03-13 21:00:00 14 22 Norte 28 Norte 0 -- -- 78
2020-03-13 20:00:00 13.9 26 Norte 29 Norte 0 -- -- 81
2020-03-13 19:00:00 14.1 23 Norte 31 Norte 0 -- -- 82
2020-03-13 18:00:00 14.6 27 Norte 35 Norte 0 -- -- 80
2020-03-13 17:00:00 15.9 31 Norte 36 Norte 0 -- -- 75
2020-03-13 16:00:00 17.4 26 Norte 32 Norte 0 -- -- 71
2020-03-13 15:00:00 18 27 Norte 33 Norte 0 -- -- 69
2020-03-13 14:00:00 18.8 28 Norte 37 Norte 0 -- -- 67
2020-03-13 13:00:00 18.8 31 Norte 37 Norte 0 -- -- 67
2020-03-13 12:00:00 18.1 19 Norte 35 Norte 0 -- -- 73
2020-03-13 11:00:00 17 31 Norte 38 Norte 0 -- -- 76
2020-03-13 10:00:00 17.2 17 Noroeste 21 Norte 0 -- -- 75
2020-03-13 09:00:00 15.7 17 Norte 28 Nordeste 0 -- -- 81
2020-03-13 08:00:00 14.7 21 Norte 27 Nordeste 0 -- -- 84
2020-03-13 07:00:00 14.3 14 Norte 21 Nordeste 0 -- -- 89
2020-03-13 06:00:00 14.4 17 Norte 28 Norte 0 -- -- 85
2020-03-13 05:00:00 14.5 22 Noroeste 30 Norte 0 -- -- 87
2020-03-13 04:00:00 14.4 11 Norte 22 Nordeste 0 -- -- 96
2020-03-13 03:00:00 14.6 11 Norte 13 Norte 0 -- -- 95
2020-03-13 02:00:00 14.8 0 Calma 10 Sur 0 -- -- 92
2020-03-13 01:00:00 15 6 Sur 8 Sur 0 -- -- 92
2020-03-13 00:00:00 15.1 7 Sur 12 Sur 0 -- -- 91
2020-03-12 23:00:00 15.2 11 Sur 12 Sur 0 -- -- 86
2020-03-12 22:00:00 15.4 8 Sudoeste 17 Sudoeste 0 -- -- 72
2020-03-12 21:00:00 15.5 10 Sudoeste 19 Sudoeste 0 -- -- 68
2020-03-12 20:00:00 15.5 14 Sudoeste 22 Sur 0 -- -- 85
2020-03-12 19:00:00 15.6 16 Sur 23 Sur 0 -- -- 83
2020-03-12 18:00:00 16.1 19 Sur 26 Sur 0 -- -- 87
2020-03-12 17:00:00 16.5 21 Sur 29 Sur 0 -- -- 83
2020-03-12 16:00:00 18 22 Sur 28 Sudoeste 0 -- -- 77
2020-03-12 15:00:00 19.4 21 Sur 28 Sur 0 -- -- 72
2020-03-12 14:00:00 19.5 23 Sur 27 Sur 0 -- -- 72
2020-03-12 13:00:00 19.1 23 Sur 30 Sur 0 -- -- 73
2020-03-12 12:00:00 18 19 Sur 32 Sur 0 -- -- 72
2020-03-12 11:00:00 18.3 20 Sur 24 Sur 0 -- -- 70
2020-03-12 10:00:00 17.8 13 Sur 22 Sudoeste 0 -- -- 49
2020-03-12 09:00:00 17.6 3 Sudoeste 16 Sur 0 -- -- 66
2020-03-12 08:00:00 14.9 0 Calma 27 Sudoeste 0 -- -- 74
2020-03-12 07:00:00 13.9 17 Sudoeste 32 Sur 0 -- -- 88
2020-03-12 06:00:00 14 14 Sudoeste 21 Sudoeste 0 -- -- 86
2020-03-12 05:00:00 14 6 Sudoeste 12 Sur 0 -- -- 79
2020-03-12 04:00:00 15 0 Calma 5 Sudoeste 0 -- -- 78
2020-03-12 03:00:00 14.9 0 Calma 3 Norte 0 -- -- 83
2020-03-12 02:00:00 15.4 3 Norte 6 Noroeste 0 -- -- 82
2020-03-12 01:00:00 15.8 0 Calma 5 Sudoeste 0 -- -- 83
2020-03-12 00:00:00 15.6 2 Oeste 8 Oeste 0 -- -- 78
2020-03-11 23:00:00 15.7 3 Oeste 8 Oeste 0 -- -- 80
2020-03-11 22:00:00 15.7 2 Sudoeste 11 Sudoeste 0 -- -- 84
2020-03-11 21:00:00 15.7 0 Calma 6 Sudoeste 0 -- -- 87
2020-03-11 20:00:00 16.1 3 Sudoeste 13 Sur 0 -- -- 87
2020-03-11 19:00:00 15.8 3 Sudoeste 27 Sudoeste 0 -- -- 90
2020-03-11 18:00:00 15.7 18 Sudoeste 30 Sudoeste 0 -- -- 90
2020-03-11 17:00:00 16.5 14 Sur 28 Sur 0 -- -- 86
2020-03-11 16:00:00 16.9 19 Sur 27 Sur 0 -- -- 83
2020-03-11 15:00:00 17.2 16 Sur 40 Sur 0 -- -- 82
2020-03-11 14:00:00 17.3 23 Sudoeste 36 Sudoeste 0 -- -- 79
2020-03-11 13:00:00 17.1 19 Sur 28 Sur 0 -- -- 81
2020-03-11 12:00:00 18.4 22 Sur 27 Sur 0 -- -- 75
2020-03-11 11:00:00 19.4 14 Sur 19 Sur 0 -- -- 65
2020-03-11 10:00:00 18.3 13 Sur 16 Sudeste 0 -- -- 69
2020-03-11 09:00:00 17.5 10 Sudeste 13 Sudeste 0 -- -- 74
2020-03-11 08:00:00 15.2 12 Este 19 Este 0 -- -- 86
2020-03-11 07:00:00 13.9 14 Este 18 Este 0 -- -- 90
2020-03-11 06:00:00 13.9 4 Este 14 Nordeste 0 -- -- 81
2020-03-11 05:00:00 14.1 8 Norte 13 Noroeste 0 -- -- 69
2020-03-11 04:00:00 14 2 Oeste 21 Oeste 0 -- -- 60
2020-03-11 03:00:00 14.6 18 Oeste 24 Oeste 0 -- -- 57
2020-03-11 02:00:00 14.2 14 Oeste 23 Oeste 0 -- -- 63
2020-03-11 01:00:00 13.8 10 Oeste 23 Oeste 0 -- -- 75
2020-03-11 00:00:00 13.3 9 Sudoeste 22 Oeste 0 -- -- 81
2020-03-10 23:00:00 13.4 10 Sudoeste 23 Oeste 0 -- -- 80
2020-03-10 22:00:00 13.4 7 Sudoeste 21 Sudoeste 0 -- -- 79
2020-03-10 21:00:00 13.6 9 Sudoeste 17 Oeste 0 -- -- 77
2020-03-10 20:00:00 14.1 6 Oeste 25 Oeste 0 -- -- 73
2020-03-10 19:00:00 14.6 6 Oeste 16 Oeste 0 -- -- 70
2020-03-10 18:00:00 14.6 3 Este 9 Nordeste 0 -- -- 76
2020-03-10 17:00:00 14.9 4 Nordeste 10 Sudeste 0 -- -- 72
2020-03-10 16:00:00 16.3 9 Sudeste 15 Sur 0 -- -- 63
2020-03-10 15:00:00 17.5 13 Sur 18 Sur 0 -- -- 61
2020-03-10 14:00:00 15.9 4 Sudeste 17 Norte 0 -- -- 65
2020-03-10 13:00:00 15.4 13 Norte 21 Norte 0 -- -- 66
2020-03-10 12:00:00 16.8 15 Norte 21 Norte 0 -- -- 59
2020-03-10 11:00:00 14.9 17 Norte 23 Norte 0 -- -- 66
2020-03-10 10:00:00 15.2 20 Norte 37 Nordeste 0 -- -- 65
2020-03-10 09:00:00 13.7 30 Nordeste 44 Nordeste 0 -- -- 72
2020-03-10 08:00:00 13.6 39 Norte 55 Norte 0 -- -- 71
2020-03-10 07:00:00 13 42 Norte 64 Norte 0 -- -- 74
2020-03-10 06:00:00 13 53 Norte 69 Norte 0 -- -- 64
2020-03-10 05:00:00 12.8 58 Norte 71 Norte 0 -- -- 68
2020-03-10 04:00:00 12.9 56 Norte 71 Norte 0 -- -- 65
2020-03-10 03:00:00 13 57 Norte 72 Norte 0 -- -- 68
2020-03-10 02:00:00 13.2 59 Norte 72 Norte 0 -- -- 60
2020-03-10 01:00:00 13.4 54 Norte 67 Norte 0 -- -- 64
2020-03-10 00:00:00 13.6 47 Norte 56 Norte 0 -- -- 65
2020-03-09 23:00:00 13.6 27 Norte 35 Norte 0 -- -- 67
2020-03-09 22:00:00 13.4 24 Norte 32 Norte 0 -- -- 68
2020-03-09 21:00:00 12.4 3 Noroeste 11 Noroeste 0 -- -- 72
2020-03-09 20:00:00 12.1 0 Calma 8 Sudoeste 0 -- -- 73
2020-03-09 19:00:00 12.6 2 Sudoeste 11 Sur 0 -- -- 74
2020-03-09 18:00:00 13.1 2 Sudeste 17 Norte 0 -- -- 69
2020-03-09 17:00:00 13 9 Nordeste 14 Nordeste 0 -- -- 70
2020-03-09 16:00:00 13.4 12 Nordeste 20 Norte 0 -- -- 69
2020-03-09 15:00:00 14 18 Nordeste 25 Nordeste 0 -- -- 67
2020-03-09 14:00:00 13.6 17 Norte 23 Norte 0 -- -- 71
2020-03-09 13:00:00 12.7 15 Norte 38 Nordeste 0 -- -- 77
2020-03-09 12:00:00 13 34 Nordeste 45 Nordeste 0 -- -- 81
2020-03-09 11:00:00 17.7 15 Norte 32 Noroeste 0 -- -- 56
2020-03-09 10:00:00 15.7 11 Noroeste 31 Norte 0 -- -- 61
2020-03-09 09:00:00 14.9 13 Noroeste 22 Norte 0 -- -- 62
2020-03-09 08:00:00 13.9 6 Sur 9 Sur 0 -- -- 73
2020-03-09 07:00:00 13.5 4 Sur 8 Sudeste 0 -- -- 79
2020-03-09 06:00:00 13.6 2 Este 6 Norte 0 -- -- 76
2020-03-09 05:00:00 13.7 5 Este 6 Este 0 -- -- 75
2020-03-09 04:00:00 14 3 Este 6 Este 0 -- -- 70
2020-03-09 03:00:00 14 0 Calma 8 Noroeste 0 -- -- 65
2020-03-09 02:00:00 13.7 5 Noroeste 14 Oeste 0 -- -- 62
2020-03-09 01:00:00 12.9 3 Sudoeste 16 Oeste 0 -- -- 70
2020-03-09 00:00:00 12.6 4 Oeste 15 Sudoeste 0 -- -- 67
2020-03-08 23:00:00 12.7 2 Sudoeste 11 Sudoeste 0 -- -- 73
2020-03-08 22:00:00 13.5 2 Sur 13 Sur 0 -- -- 73
2020-03-08 21:00:00 13.7 0 Calma 8 Sudoeste 0 -- -- 84
2020-03-08 20:00:00 14.2 4 Este 9 Nordeste 0 -- -- 85
2020-03-08 19:00:00 14.1 8 Nordeste 14 Este 0 -- -- 84
2020-03-08 18:00:00 14.7 10 Nordeste 14 Nordeste 0 -- -- 81
2020-03-08 17:00:00 15.2 9 Nordeste 12 Norte 0 -- -- 79
2020-03-08 16:00:00 16.9 7 Sudeste 17 Sur 0 -- -- 72
2020-03-08 15:00:00 19.3 15 Sur 21 Sur 0 -- -- 63
2020-03-08 14:00:00 20 16 Sur 20 Sur 0 -- -- 56
2020-03-08 13:00:00 19.6 16 Sur 21 Sur 0 -- -- 56
2020-03-08 12:00:00 19.2 17 Sur 22 Sur 0 -- -- 56
2020-03-08 11:00:00 18.1 16 Sur 21 Sur 0 -- -- 60
2020-03-08 10:00:00 17.4 13 Sur 18 Sur 0 -- -- 61
2020-03-08 09:00:00 15 6 Sudoeste 13 Sur 0 -- -- 63
2020-03-08 08:00:00 12.6 2 Sur 17 Sur 0 -- -- 73
2020-03-08 07:00:00 12.6 6 Sudoeste 16 Sur 0 -- -- 69
2020-03-08 06:00:00 12.6 5 Sudoeste 16 Sur 0 -- -- 72
2020-03-08 05:00:00 12.4 7 Sur 13 Sudoeste 0 -- -- 73
2020-03-08 04:00:00 12.1 0 Calma 8 Sur 0 -- -- 67
2020-03-08 03:00:00 11.8 5 Sur 12 Sur 0 -- -- 63
2020-03-08 02:00:00 12.2 3 Sudeste 8 Oeste 0 -- -- 63
2020-03-08 01:00:00 11.8 7 Oeste 12 Sudoeste 0 -- -- 52
2020-03-08 00:00:00 11.7 6 Sudoeste 14 Sudoeste 0 -- -- 65
2020-03-07 23:00:00 11.5 5 Sur 15 Sur 0 -- -- 64
2020-03-07 22:00:00 11.8 10 Sur 15 Sur 0 -- -- 69
2020-03-07 21:00:00 11.4 5 Oeste 13 Sudoeste 0 -- -- 57
2020-03-07 20:00:00 11.9 7 Noroeste 14 Noroeste 0 -- -- 57
2020-03-07 19:00:00 12.5 11 Norte 24 Noroeste 0 -- -- 54
2020-03-07 18:00:00 13.3 14 Noroeste 21 Noroeste 0 -- -- 59
2020-03-07 17:00:00 14.7 15 Noroeste 23 Noroeste 0 -- -- 55
2020-03-07 16:00:00 15 17 Noroeste 29 Norte 0 -- -- 53
2020-03-07 15:00:00 15.4 21 Norte 31 Norte 0 -- -- 52
2020-03-07 14:00:00 15.9 23 Noroeste 41 Norte 0 -- -- 50
2020-03-07 13:00:00 15 31 Norte 37 Norte 0 -- -- 51
2020-03-07 12:00:00 15 26 Norte 45 Noroeste 0 -- -- 50
2020-03-07 11:00:00 15 24 Norte 38 Norte 0 -- -- 55
2020-03-07 10:00:00 14 23 Noroeste 37 Norte 0 -- -- 53
2020-03-07 09:00:00 13 31 Norte 46 Norte 0 -- -- 56
2020-03-07 08:00:00 12.4 33 Norte 46 Norte 0 -- -- 61
2020-03-07 07:00:00 11.8 33 Norte 54 Noroeste 0.1 -- -- 70
2020-03-07 06:00:00 11.6 33 Norte 56 Norte 0 -- -- 65
2020-03-07 05:00:00 11.3 31 Norte 52 Noroeste 0 -- -- 66
2020-03-07 04:00:00 11 22 Norte 54 Noroeste 0 -- -- 66
2020-03-07 03:00:00 11.5 40 Norte 62 Noroeste 0 -- -- 65
2020-03-07 02:00:00 11.2 34 Norte 59 Norte 0 -- -- 63
2020-03-07 01:00:00 11.2 43 Norte 62 Noroeste 0 -- -- 63
2020-03-07 00:00:00 11 27 Norte 45 Noroeste 0.9 -- -- 66
2020-03-06 23:00:00 8.8 4 Oeste 44 Norte 6.7 -- -- 84
2020-03-06 22:00:00 12.3 6 Este 39 Norte 0 -- -- 73
2020-03-06 21:00:00 11.9 36 Norte 49 Norte 0.4 -- -- 80
2020-03-06 20:00:00 12 14 Noroeste 51 Oeste 0.2 -- -- 63
2020-03-06 19:00:00 13.4 20 Noroeste 62 Noroeste 0 -- -- 45
2020-03-06 18:00:00 13.7 27 Norte 71 Noroeste 0 -- -- 45
2020-03-06 17:00:00 14.6 13 Noroeste 50 Oeste 0 -- -- 43
2020-03-06 16:00:00 15.3 11 Norte 45 Oeste 0 -- -- 40
2020-03-06 15:00:00 17 8 Noroeste 39 Oeste 0 -- -- 41
2020-03-06 14:00:00 16.7 9 Noroeste 51 Noroeste 0 -- -- 38
2020-03-06 13:00:00 17.1 17 Norte 43 Norte 0 -- -- 36
2020-03-06 12:00:00 18.3 18 Noroeste 39 Oeste 0 -- -- 34
2020-03-06 11:00:00 19.1 9 Oeste 39 Norte 0 -- -- 35
2020-03-06 10:00:00 18.1 6 Oeste 39 Noroeste 0 -- -- 42
2020-03-06 09:00:00 16.4 13 Noroeste 39 Oeste 0 -- -- 44
2020-03-06 08:00:00 14.5 7 Noroeste 48 Noroeste 0 -- -- 43
2020-03-06 07:00:00 14.8 16 Noroeste 52 Oeste 0 -- -- 37
2020-03-06 06:00:00 14.4 10 Noroeste 40 Norte 0 -- -- 45
2020-03-06 05:00:00 14.2 19 Norte 36 Noroeste 0 -- -- 49
2020-03-06 04:00:00 14.5 18 Norte 44 Noroeste 0 -- -- 47
2020-03-06 03:00:00 15.5 19 Norte 38 Oeste 0 -- -- 33
2020-03-06 02:00:00 16.6 15 Noroeste 30 Noroeste 0 -- -- 30
2020-03-06 01:00:00 16.7 14 Norte 36 Noroeste 0 -- -- 39
2020-03-06 00:00:00 17.2 18 Norte 41 Norte 0 -- -- 43
2020-03-05 23:00:00 17.7 13 Noroeste 41 Noroeste 0 -- -- 42
2020-03-05 22:00:00 18.5 15 Noroeste 39 Oeste 0 -- -- 41
2020-03-05 21:00:00 18.4 9 Noroeste 24 Noroeste 0 -- -- 44
2020-03-05 20:00:00 17.8 10 Oeste 28 Oeste 0 -- -- 61
2020-03-05 19:00:00 18.2 10 Oeste 28 Sudoeste 0 -- -- 57
2020-03-05 18:00:00 19.3 8 Sudoeste 29 Oeste 0 -- -- 55
2020-03-05 17:00:00 21.4 12 Oeste 36 Oeste 0 -- -- 48
2020-03-05 16:00:00 21.7 15 Sudoeste 38 Sudoeste 0 -- -- 46
2020-03-05 15:00:00 21.2 14 Oeste 42 Sudoeste 0 -- -- 45
2020-03-05 14:00:00 21.4 14 Sudoeste 47 Oeste 0 -- -- 44
2020-03-05 13:00:00 22.1 12 Oeste 36 Oeste 0 -- -- 42
2020-03-05 12:00:00 21.4 12 Sudoeste 32 Sudoeste 0 -- -- 46
2020-03-05 11:00:00 20.8 12 Sudoeste 37 Oeste 0 -- -- 54
2020-03-05 10:00:00 18.7 15 Oeste 39 Oeste 0 -- -- 65
2020-03-05 09:00:00 17.1 11 Sudoeste 39 Sudoeste 0 -- -- 71
2020-03-05 08:00:00 15.2 8 Sudoeste 26 Sudoeste 0 -- -- 83
2020-03-05 07:00:00 14.1 6 Oeste 21 Sudoeste 0 -- -- 88
2020-03-05 06:00:00 14.6 7 Oeste 19 Sudoeste 0 -- -- 84
2020-03-05 05:00:00 15.4 3 Oeste 18 Sudoeste 0 -- -- 73
2020-03-05 04:00:00 15.6 6 Sudoeste 23 Sudoeste 0 -- -- 73
2020-03-05 03:00:00 16 5 Sudoeste 21 Sudoeste 0 -- -- 72
2020-03-05 02:00:00 16 6 Sudoeste 23 Oeste 0 -- -- 77
2020-03-05 01:00:00 16.1 6 Sudoeste 22 Sur 0 -- -- 74
2020-03-05 00:00:00 15.9 5 Sudoeste 16 Sudoeste 0 -- -- 76
2020-03-04 23:00:00 16.3 8 Sudoeste 19 Sur 0 -- -- 72
2020-03-04 22:00:00 16.6 5 Sudoeste 14 Sudoeste 0 -- -- 69
2020-03-04 21:00:00 16.9 5 Sudoeste 18 Oeste 0 -- -- 67
2020-03-04 20:00:00 16.4 8 Oeste 26 Oeste 0 -- -- 69
2020-03-04 19:00:00 16.9 11 Oeste 23 Sudoeste 0 -- -- 67
2020-03-04 18:00:00 17.2 8 Oeste 23 Oeste 0 -- -- 64
2020-03-04 17:00:00 16.4 15 Sudoeste 41 Sudoeste 0 -- -- 73
2020-03-04 16:00:00 15.9 24 Sudoeste 51 Sudoeste 0 -- -- 80
2020-03-04 15:00:00 15.9 29 Sur 53 Sur 0 -- -- 76
2020-03-04 14:00:00 15.7 28 Sudoeste 48 Sudoeste 0 -- -- 68
2020-03-04 13:00:00 15.7 26 Sur 42 Sur 0 -- -- 65
2020-03-04 12:00:00 16.8 27 Sur 34 Sur 0 -- -- 57
2020-03-04 11:00:00 15.5 20 Sur 29 Sur 0 -- -- 63
2020-03-04 10:00:00 16.2 11 Sur 17 Sur 0 -- -- 60
2020-03-04 09:00:00 14.3 3 Sur 12 Norte 0 -- -- 68
2020-03-04 08:00:00 13.5 3 Nordeste 19 Nordeste 0 -- -- 67
2020-03-04 07:00:00 12.9 11 Nordeste 25 Norte 0 -- -- 69
2020-03-04 06:00:00 13.1 19 Norte 37 Norte 0 -- -- 69
2020-03-04 05:00:00 13 32 Norte 45 Norte 0 -- -- 69
2020-03-04 04:00:00 13 42 Norte 53 Norte 0 -- -- 67
2020-03-04 03:00:00 13.1 45 Norte 57 Norte 0 -- -- 67
2020-03-04 02:00:00 13.3 39 Norte 58 Norte 0 -- -- 72
2020-03-04 01:00:00 13.2 45 Norte 59 Norte 0 -- -- 74
2020-03-04 00:00:00 14.5 36 Norte 82 Noroeste 0 -- -- 66
2020-03-03 23:00:00 16.9 46 Norte 80 Noroeste 0 -- -- 51
2020-03-03 22:00:00 18.1 42 Norte 73 Norte 0 -- -- 43
2020-03-03 21:00:00 18.9 23 Noroeste 71 Oeste 0 -- -- 43
2020-03-03 20:00:00 15.9 13 Oeste 40 Oeste 0 -- -- 59
2020-03-03 19:00:00 16 17 Sudoeste 46 Oeste 0 -- -- 57
2020-03-03 18:00:00 16.4 15 Oeste 41 Oeste 0 -- -- 51
2020-03-03 17:00:00 16.3 15 Sudoeste 53 Oeste 0 -- -- 51
2020-03-03 16:00:00 16.5 23 Sudoeste 57 Sudoeste 0 -- -- 45
2020-03-03 15:00:00 16.9 14 Oeste 44 Sudoeste 0 -- -- 44
2020-03-03 14:00:00 16.4 14 Oeste 40 Oeste 0 -- -- 41
2020-03-03 13:00:00 16.6 13 Oeste 31 Oeste 0 -- -- 39
2020-03-03 12:00:00 16.3 9 Oeste 26 Sudoeste 0 -- -- 41
2020-03-03 11:00:00 14.2 8 Oeste 25 Oeste 0 -- -- 45
2020-03-03 10:00:00 14.4 11 Oeste 30 Oeste 0 -- -- 41
2020-03-03 09:00:00 14.5 20 Norte 54 Norte 0 -- -- 39
2020-03-03 08:00:00 12.4 13 Noroeste 49 Norte 0 -- -- 45
2020-03-03 07:00:00 12.1 19 Norte 54 Noroeste 0 -- -- 48
2020-03-03 06:00:00 12.1 29 Norte 71 Noroeste 0 -- -- 51
2020-03-03 05:00:00 12.4 25 Norte 64 Noroeste 0 -- -- 49
2020-03-03 04:00:00 12.3 19 Noroeste 56 Norte 0 -- -- 50
2020-03-03 03:00:00 12 14 Noroeste 48 Oeste 0 -- -- 51
2020-03-03 02:00:00 12.1 14 Noroeste 67 Noroeste 0 -- -- 51
2020-03-03 01:00:00 12.6 32 Norte 68 Noroeste 0 -- -- 46
2020-03-03 00:00:00 13 32 Norte 60 Noroeste 0 -- -- 49
2020-03-02 23:00:00 13.2 24 Norte 68 Norte 0 -- -- 47
2020-03-02 22:00:00 13.8 19 Noroeste 59 Noroeste 0 -- -- 47
2020-03-02 21:00:00 13.9 18 Noroeste 48 Noroeste 0 -- -- 46
2020-03-02 20:00:00 14.1 10 Norte 51 Noroeste 0 -- -- 43
2020-03-02 19:00:00 14.8 12 Noroeste 48 Oeste 0 -- -- 37
2020-03-02 18:00:00 15.8 18 Oeste 64 Oeste 0 -- -- 35
2020-03-02 17:00:00 16.8 14 Noroeste 64 Oeste 0 -- -- 27
2020-03-02 16:00:00 17.6 16 Oeste 55 Oeste 0 -- -- 35
2020-03-02 15:00:00 16.6 13 Noroeste 53 Oeste 0.1 -- -- 41
2020-03-02 14:00:00 17.2 14 Noroeste 44 Oeste 0 -- -- 61
2020-03-02 13:00:00 14 14 Oeste 53 Oeste 3.1 -- -- 81
2020-03-02 12:00:00 20 21 Oeste 54 Sur 0 -- -- 58
2020-03-02 11:00:00 17.5 22 Oeste 60 Oeste 0 -- -- 71
2020-03-02 10:00:00 16.7 19 Oeste 54 Sudoeste 0.1 -- -- 76
2020-03-02 09:00:00 15.6 20 Oeste 56 Oeste 0.8 -- -- 83
2020-03-02 08:00:00 15.8 16 Sudoeste 55 Sudoeste 0.1 -- -- 79
2020-03-02 07:00:00 15.8 14 Sudoeste 43 Oeste 0 -- -- 81
2020-03-02 06:00:00 16 16 Oeste 46 Oeste 0 -- -- 77
2020-03-02 05:00:00 15.8 10 Oeste 41 Sudoeste 0 -- -- 76
2020-03-02 04:00:00 15.8 11 Oeste 41 Sudoeste 0 -- -- 78
2020-03-02 03:00:00 15.8 10 Oeste 32 Oeste 0 -- -- 76
2020-03-02 02:00:00 16.2 13 Oeste 36 Oeste 0 -- -- 69
2020-03-02 01:00:00 15.6 11 Oeste 34 Sudoeste 0 -- -- 78
2020-03-02 00:00:00 15.9 12 Sudoeste 33 Oeste 0 -- -- 72
2020-03-01 23:00:00 15.6 18 Oeste 35 Oeste 0 -- -- 77
2020-03-01 22:00:00 15.4 13 Oeste 33 Sudoeste 0 -- -- 73
2020-03-01 21:00:00 16.1 11 Oeste 37 Sudoeste 0 -- -- 67
2020-03-01 20:00:00 16.6 14 Sudoeste 30 Oeste 0 -- -- 63
2020-03-01 19:00:00 17.1 4 Sudoeste 28 Sudoeste 0 -- -- 56
2020-03-01 18:00:00 17.9 11 Oeste 33 Sudoeste 0 -- -- 51
2020-03-01 17:00:00 19.6 11 Sudoeste 31 Sudoeste 0 -- -- 45
2020-03-01 16:00:00 21.7 9 Oeste 29 Oeste 0 -- -- 42
2020-03-01 15:00:00 22.9 7 Sudoeste 34 Noroeste 0 -- -- 31
2020-03-01 14:00:00 23.2 3 Oeste 34 Oeste 0 -- -- 34
2020-03-01 13:00:00 22.8 9 Oeste 34 Sudoeste 0 -- -- 37
2020-03-01 12:00:00 21.4 9 Oeste 28 Oeste 0 -- -- 39
2020-03-01 11:00:00 17.7 11 Oeste 26 Oeste 0 -- -- 59
2020-03-01 10:00:00 16.2 6 Sudoeste 22 Oeste 0 -- -- 71
2020-03-01 09:00:00 17.5 12 Oeste 28 Oeste 0 -- -- 61
2020-03-01 08:00:00 16.8 7 Oeste 36 Oeste 0 -- -- 64
2020-03-01 07:00:00 16.6 11 Oeste 26 Oeste 0 -- -- 65
2020-03-01 06:00:00 16.9 9 Sudoeste 22 Oeste 0 -- -- 59
2020-03-01 05:00:00 17.6 8 Oeste 28 Oeste 0 -- -- 51
2020-03-01 04:00:00 18 11 Oeste 31 Oeste 0 -- -- 49
2020-03-01 03:00:00 18.6 13 Oeste 38 Oeste 0 -- -- 46
2020-03-01 02:00:00 18.6 16 Oeste 41 Oeste 0 -- -- 46
2020-03-01 01:00:00 17.3 9 Oeste 21 Oeste 0 -- -- 56
2020-03-01 00:00:00 17.1 9 Oeste 23 Sudoeste 0 -- -- 59
2020-02-29 23:00:00 16.7 7 Sudoeste 30 Sudoeste 0 -- -- 64
2020-02-29 22:00:00 16.3 11 Oeste 36 Sudoeste 0 -- -- 64
2020-02-29 21:00:00 16.5 8 Sudoeste 29 Noroeste 0 -- -- 64
2020-02-29 20:00:00 16.5 10 Sudoeste 25 Sudoeste 0 -- -- 68
2020-02-29 19:00:00 17.7 10 Oeste 31 Sudoeste 0 -- -- 58
2020-02-29 18:00:00 19.8 10 Oeste 31 Oeste 0 -- -- 41
2020-02-29 17:00:00 21.1 12 Oeste 34 Sudoeste 0 -- -- 37
2020-02-29 16:00:00 21.7 17 Oeste 38 Oeste 0 -- -- 32
2020-02-29 15:00:00 23.2 12 Oeste 47 Oeste 0 -- -- 29
2020-02-29 14:00:00 22.1 13 Sudoeste 32 Oeste 0 -- -- 42
2020-02-29 13:00:00 21.3 9 Sudoeste 41 Sudoeste 0 -- -- 47
2020-02-29 12:00:00 18.8 18 Sudoeste 37 Sur 0 -- -- 65
2020-02-29 11:00:00 18.2 14 Sudoeste 30 Sudoeste 0 -- -- 65
2020-02-29 10:00:00 16.6 13 Sudoeste 35 Sur 0 -- -- 81
2020-02-29 09:00:00 16 6 Sudoeste 22 Sudoeste 0 -- -- 81
2020-02-29 08:00:00 14 7 Sudoeste 18 Sudoeste 0 -- -- 91
2020-02-29 07:00:00 13.8 5 Sudoeste 19 Sudoeste 0 -- -- 91
2020-02-29 06:00:00 13.7 3 Oeste 19 Sur 0 -- -- 90
2020-02-29 05:00:00 14.1 4 Sudoeste 23 Oeste 0 -- -- 88
2020-02-29 04:00:00 14.5 5 Oeste 32 Sudoeste 0 -- -- 88
2020-02-29 03:00:00 14.7 9 Sudoeste 31 Sur 0 -- -- 87
2020-02-29 02:00:00 15.1 20 Sur 32 Sur 0 -- -- 88
2020-02-29 01:00:00 14.9 27 Sur 32 Sur 0 -- -- 79
2020-02-29 00:00:00 14.6 27 Sur 31 Sur 0 -- -- 78